sensor_id;sensor_type;location;lat;lon;timestamp;P1;durP1;ratioP1;P2;durP2;ratioP2
11608;SDS011;5860;52.018;8.536;2023-05-07T00:02:08;21.07;;;18.80;;
11608;SDS011;5860;52.018;8.536;2023-05-07T00:04:35;23.47;;;18.30;;
11608;SDS011;5860;52.018;8.536;2023-05-07T00:07:04;21.20;;;18.07;;
11608;SDS011;5860;52.018;8.536;2023-05-07T00:09:31;20.07;;;17.93;;
11608;SDS011;5860;52.018;8.536;2023-05-07T00:11:58;21.07;;;18.10;;
11608;SDS011;5860;52.018;8.536;2023-05-07T00:14:25;20.30;;;18.20;;
11608;SDS011;5860;52.018;8.536;2023-05-07T00:16:52;21.93;;;18.60;;
11608;SDS011;5860;52.018;8.536;2023-05-07T00:19:19;19.90;;;17.80;;
11608;SDS011;5860;52.018;8.536;2023-05-07T00:21:46;21.07;;;18.47;;
11608;SDS011;5860;52.018;8.536;2023-05-07T00:24:14;21.13;;;18.07;;
11608;SDS011;5860;52.018;8.536;2023-05-07T00:26:40;23.27;;;18.33;;
11608;SDS011;5860;52.018;8.536;2023-05-07T00:29:07;21.30;;;18.37;;
11608;SDS011;5860;52.018;8.536;2023-05-07T00:31:34;20.10;;;17.87;;
11608;SDS011;5860;52.018;8.536;2023-05-07T00:34:04;21.23;;;17.97;;
11608;SDS011;5860;52.018;8.536;2023-05-07T00:36:31;19.73;;;17.63;;
11608;SDS011;5860;52.018;8.536;2023-05-07T00:39:01;20.73;;;17.73;;
11608;SDS011;5860;52.018;8.536;2023-05-07T00:41:29;19.97;;;17.80;;
11608;SDS011;5860;52.018;8.536;2023-05-07T00:43:57;21.63;;;18.13;;
11608;SDS011;5860;52.018;8.536;2023-05-07T00:46:24;19.67;;;17.17;;
11608;SDS011;5860;52.018;8.536;2023-05-07T00:48:52;22.23;;;18.43;;
11608;SDS011;5860;52.018;8.536;2023-05-07T00:51:20;22.77;;;17.97;;
11608;SDS011;5860;52.018;8.536;2023-05-07T00:53:47;22.10;;;18.07;;
11608;SDS011;5860;52.018;8.536;2023-05-07T00:56:15;22.43;;;18.63;;
11608;SDS011;5860;52.018;8.536;2023-05-07T00:58:42;21.97;;;18.00;;
11608;SDS011;5860;52.018;8.536;2023-05-07T01:01:10;20.30;;;18.00;;
11608;SDS011;5860;52.018;8.536;2023-05-07T01:03:42;24.17;;;18.70;;
11608;SDS011;5860;52.018;8.536;2023-05-07T01:06:09;21.90;;;17.73;;
11608;SDS011;5860;52.018;8.536;2023-05-07T01:08:39;21.17;;;18.07;;
11608;SDS011;5860;52.018;8.536;2023-05-07T01:11:11;22.83;;;18.70;;
11608;SDS011;5860;52.018;8.536;2023-05-07T01:13:38;24.17;;;19.47;;
11608;SDS011;5860;52.018;8.536;2023-05-07T01:16:06;25.80;;;18.63;;
11608;SDS011;5860;52.018;8.536;2023-05-07T01:18:35;26.63;;;20.60;;
11608;SDS011;5860;52.018;8.536;2023-05-07T01:21:03;23.47;;;19.17;;
11608;SDS011;5860;52.018;8.536;2023-05-07T01:23:31;24.43;;;19.50;;
11608;SDS011;5860;52.018;8.536;2023-05-07T01:26:00;26.73;;;19.17;;
11608;SDS011;5860;52.018;8.536;2023-05-07T01:28:27;24.83;;;20.07;;
11608;SDS011;5860;52.018;8.536;2023-05-07T01:30:54;23.37;;;19.90;;
11608;SDS011;5860;52.018;8.536;2023-05-07T01:33:26;23.57;;;18.80;;
11608;SDS011;5860;52.018;8.536;2023-05-07T01:36:01;22.07;;;18.77;;
11608;SDS011;5860;52.018;8.536;2023-05-07T01:38:35;23.17;;;19.13;;
11608;SDS011;5860;52.018;8.536;2023-05-07T01:41:03;22.83;;;19.37;;
11608;SDS011;5860;52.018;8.536;2023-05-07T01:43:31;22.83;;;18.90;;
11608;SDS011;5860;52.018;8.536;2023-05-07T01:45:58;23.63;;;20.60;;
11608;SDS011;5860;52.018;8.536;2023-05-07T01:48:28;26.27;;;19.77;;
11608;SDS011;5860;52.018;8.536;2023-05-07T01:50:56;25.07;;;19.73;;
11608;SDS011;5860;52.018;8.536;2023-05-07T01:53:25;23.47;;;19.80;;
11608;SDS011;5860;52.018;8.536;2023-05-07T01:55:54;23.33;;;19.67;;
11608;SDS011;5860;52.018;8.536;2023-05-07T01:58:20;23.83;;;18.60;;
11608;SDS011;5860;52.018;8.536;2023-05-07T02:00:48;25.47;;;19.67;;
11608;SDS011;5860;52.018;8.536;2023-05-07T02:03:14;23.97;;;19.97;;
11608;SDS011;5860;52.018;8.536;2023-05-07T02:05:41;23.20;;;19.57;;
11608;SDS011;5860;52.018;8.536;2023-05-07T02:08:08;23.80;;;19.53;;
11608;SDS011;5860;52.018;8.536;2023-05-07T02:10:36;24.50;;;20.63;;
11608;SDS011;5860;52.018;8.536;2023-05-07T02:13:02;21.93;;;19.53;;
11608;SDS011;5860;52.018;8.536;2023-05-07T02:15:30;25.53;;;20.17;;
11608;SDS011;5860;52.018;8.536;2023-05-07T02:20:28;23.40;;;19.67;;
11608;SDS011;5860;52.018;8.536;2023-05-07T02:22:55;23.97;;;20.47;;
11608;SDS011;5860;52.018;8.536;2023-05-07T02:25:22;25.70;;;20.63;;
11608;SDS011;5860;52.018;8.536;2023-05-07T02:27:50;24.70;;;19.80;;
11608;SDS011;5860;52.018;8.536;2023-05-07T02:30:17;24.50;;;20.07;;
11608;SDS011;5860;52.018;8.536;2023-05-07T02:32:44;27.07;;;19.80;;
11608;SDS011;5860;52.018;8.536;2023-05-07T02:35:11;23.77;;;20.17;;
11608;SDS011;5860;52.018;8.536;2023-05-07T02:37:38;29.50;;;21.80;;
11608;SDS011;5860;52.018;8.536;2023-05-07T02:40:05;24.43;;;20.40;;
11608;SDS011;5860;52.018;8.536;2023-05-07T02:42:33;24.97;;;20.00;;
11608;SDS011;5860;52.018;8.536;2023-05-07T02:45:00;25.20;;;20.53;;
11608;SDS011;5860;52.018;8.536;2023-05-07T02:47:27;25.93;;;19.93;;
11608;SDS011;5860;52.018;8.536;2023-05-07T02:49:55;25.87;;;19.40;;
11608;SDS011;5860;52.018;8.536;2023-05-07T02:52:23;24.17;;;20.93;;
11608;SDS011;5860;52.018;8.536;2023-05-07T02:54:50;24.00;;;19.93;;
11608;SDS011;5860;52.018;8.536;2023-05-07T02:57:17;25.67;;;20.33;;
11608;SDS011;5860;52.018;8.536;2023-05-07T02:59:44;25.40;;;20.57;;
11608;SDS011;5860;52.018;8.536;2023-05-07T03:02:11;24.83;;;20.80;;
11608;SDS011;5860;52.018;8.536;2023-05-07T03:04:39;26.33;;;20.97;;
11608;SDS011;5860;52.018;8.536;2023-05-07T03:07:06;25.37;;;20.70;;
11608;SDS011;5860;52.018;8.536;2023-05-07T03:09:33;25.23;;;20.73;;
11608;SDS011;5860;52.018;8.536;2023-05-07T03:12:00;26.27;;;20.27;;
11608;SDS011;5860;52.018;8.536;2023-05-07T03:14:28;25.50;;;21.43;;
11608;SDS011;5860;52.018;8.536;2023-05-07T03:16:55;25.33;;;20.07;;
11608;SDS011;5860;52.018;8.536;2023-05-07T03:19:22;25.17;;;21.03;;
11608;SDS011;5860;52.018;8.536;2023-05-07T03:21:49;24.50;;;20.77;;
11608;SDS011;5860;52.018;8.536;2023-05-07T03:24:16;25.87;;;21.00;;
11608;SDS011;5860;52.018;8.536;2023-05-07T03:26:43;25.03;;;21.33;;
11608;SDS011;5860;52.018;8.536;2023-05-07T03:29:09;25.70;;;20.60;;
11608;SDS011;5860;52.018;8.536;2023-05-07T03:31:36;28.53;;;21.30;;
11608;SDS011;5860;52.018;8.536;2023-05-07T03:34:03;25.17;;;20.93;;
11608;SDS011;5860;52.018;8.536;2023-05-07T03:36:30;29.53;;;22.10;;
11608;SDS011;5860;52.018;8.536;2023-05-07T03:38:57;26.60;;;21.40;;
11608;SDS011;5860;52.018;8.536;2023-05-07T03:41:24;27.83;;;21.83;;
11608;SDS011;5860;52.018;8.536;2023-05-07T03:43:52;26.50;;;21.97;;
11608;SDS011;5860;52.018;8.536;2023-05-07T03:46:19;26.83;;;22.17;;
11608;SDS011;5860;52.018;8.536;2023-05-07T03:48:46;27.10;;;21.43;;
11608;SDS011;5860;52.018;8.536;2023-05-07T03:51:13;24.53;;;20.37;;
11608;SDS011;5860;52.018;8.536;2023-05-07T03:53:40;23.23;;;19.87;;
11608;SDS011;5860;52.018;8.536;2023-05-07T03:56:07;26.80;;;21.53;;
11608;SDS011;5860;52.018;8.536;2023-05-07T03:58:34;28.93;;;20.77;;
11608;SDS011;5860;52.018;8.536;2023-05-07T04:01:01;27.27;;;21.80;;
11608;SDS011;5860;52.018;8.536;2023-05-07T04:03:29;25.50;;;21.20;;
11608;SDS011;5860;52.018;8.536;2023-05-07T04:05:56;26.93;;;21.10;;
11608;SDS011;5860;52.018;8.536;2023-05-07T04:08:23;25.43;;;21.53;;
11608;SDS011;5860;52.018;8.536;2023-05-07T04:10:54;24.00;;;20.17;;
11608;SDS011;5860;52.018;8.536;2023-05-07T04:13:26;26.43;;;20.80;;
11608;SDS011;5860;52.018;8.536;2023-05-07T04:15:54;27.43;;;21.23;;
11608;SDS011;5860;52.018;8.536;2023-05-07T04:18:21;26.10;;;21.57;;
11608;SDS011;5860;52.018;8.536;2023-05-07T04:20:49;28.93;;;22.37;;
11608;SDS011;5860;52.018;8.536;2023-05-07T04:23:16;25.90;;;20.87;;
11608;SDS011;5860;52.018;8.536;2023-05-07T04:25:43;27.17;;;20.97;;
11608;SDS011;5860;52.018;8.536;2023-05-07T04:28:11;27.83;;;21.73;;
11608;SDS011;5860;52.018;8.536;2023-05-07T04:30:38;28.63;;;21.43;;
11608;SDS011;5860;52.018;8.536;2023-05-07T04:33:05;24.53;;;21.40;;
11608;SDS011;5860;52.018;8.536;2023-05-07T04:35:33;27.60;;;21.07;;
11608;SDS011;5860;52.018;8.536;2023-05-07T04:38:01;26.33;;;21.87;;
11608;SDS011;5860;52.018;8.536;2023-05-07T04:40:27;27.90;;;21.90;;
11608;SDS011;5860;52.018;8.536;2023-05-07T04:42:54;27.70;;;22.13;;
11608;SDS011;5860;52.018;8.536;2023-05-07T04:45:21;26.10;;;21.53;;
11608;SDS011;5860;52.018;8.536;2023-05-07T04:47:48;27.53;;;21.57;;
11608;SDS011;5860;52.018;8.536;2023-05-07T04:50:16;28.27;;;22.00;;
11608;SDS011;5860;52.018;8.536;2023-05-07T04:52:44;24.93;;;21.03;;
11608;SDS011;5860;52.018;8.536;2023-05-07T04:55:11;25.50;;;21.23;;
11608;SDS011;5860;52.018;8.536;2023-05-07T04:57:38;26.17;;;21.47;;
11608;SDS011;5860;52.018;8.536;2023-05-07T05:00:07;30.10;;;22.20;;
11608;SDS011;5860;52.018;8.536;2023-05-07T05:02:40;26.17;;;21.93;;
11608;SDS011;5860;52.018;8.536;2023-05-07T05:05:08;25.37;;;21.40;;
11608;SDS011;5860;52.018;8.536;2023-05-07T05:07:34;27.60;;;22.53;;
11608;SDS011;5860;52.018;8.536;2023-05-07T05:10:02;28.97;;;22.80;;
11608;SDS011;5860;52.018;8.536;2023-05-07T05:12:29;27.90;;;21.97;;
11608;SDS011;5860;52.018;8.536;2023-05-07T05:14:56;27.03;;;22.43;;
11608;SDS011;5860;52.018;8.536;2023-05-07T05:17:23;27.93;;;22.37;;
11608;SDS011;5860;52.018;8.536;2023-05-07T05:19:50;25.20;;;20.70;;
11608;SDS011;5860;52.018;8.536;2023-05-07T05:22:17;24.43;;;21.50;;
11608;SDS011;5860;52.018;8.536;2023-05-07T05:24:44;26.07;;;22.10;;
11608;SDS011;5860;52.018;8.536;2023-05-07T05:27:11;28.03;;;21.57;;
11608;SDS011;5860;52.018;8.536;2023-05-07T05:29:38;28.67;;;21.97;;
11608;SDS011;5860;52.018;8.536;2023-05-07T05:32:05;27.20;;;21.30;;
11608;SDS011;5860;52.018;8.536;2023-05-07T05:34:31;25.00;;;21.00;;
11608;SDS011;5860;52.018;8.536;2023-05-07T05:36:59;25.27;;;20.87;;
11608;SDS011;5860;52.018;8.536;2023-05-07T05:39:26;24.27;;;20.07;;
11608;SDS011;5860;52.018;8.536;2023-05-07T05:41:53;27.13;;;20.50;;
11608;SDS011;5860;52.018;8.536;2023-05-07T05:44:20;28.37;;;20.07;;
11608;SDS011;5860;52.018;8.536;2023-05-07T05:46:47;25.17;;;20.07;;
11608;SDS011;5860;52.018;8.536;2023-05-07T05:49:16;27.73;;;20.70;;
11608;SDS011;5860;52.018;8.536;2023-05-07T05:51:43;24.20;;;19.07;;
11608;SDS011;5860;52.018;8.536;2023-05-07T05:54:10;25.13;;;19.53;;
11608;SDS011;5860;52.018;8.536;2023-05-07T05:56:37;23.63;;;18.63;;
11608;SDS011;5860;52.018;8.536;2023-05-07T05:59:04;23.97;;;19.87;;
11608;SDS011;5860;52.018;8.536;2023-05-07T06:01:31;22.47;;;17.83;;
11608;SDS011;5860;52.018;8.536;2023-05-07T06:03:58;23.23;;;18.03;;
11608;SDS011;5860;52.018;8.536;2023-05-07T06:06:25;23.23;;;17.60;;
11608;SDS011;5860;52.018;8.536;2023-05-07T06:08:52;19.70;;;17.60;;
11608;SDS011;5860;52.018;8.536;2023-05-07T06:11:19;22.87;;;17.80;;
11608;SDS011;5860;52.018;8.536;2023-05-07T06:13:46;20.50;;;16.83;;
11608;SDS011;5860;52.018;8.536;2023-05-07T06:16:14;21.83;;;16.03;;
11608;SDS011;5860;52.018;8.536;2023-05-07T06:18:41;21.53;;;16.20;;
11608;SDS011;5860;52.018;8.536;2023-05-07T06:21:09;20.80;;;16.70;;
11608;SDS011;5860;52.018;8.536;2023-05-07T06:23:36;20.10;;;16.10;;
11608;SDS011;5860;52.018;8.536;2023-05-07T06:26:03;17.63;;;15.73;;
11608;SDS011;5860;52.018;8.536;2023-05-07T06:28:30;17.53;;;15.27;;
11608;SDS011;5860;52.018;8.536;2023-05-07T06:31:11;20.30;;;16.07;;
11608;SDS011;5860;52.018;8.536;2023-05-07T06:33:43;19.97;;;15.57;;
11608;SDS011;5860;52.018;8.536;2023-05-07T06:36:10;17.67;;;15.50;;
11608;SDS011;5860;52.018;8.536;2023-05-07T06:38:37;19.60;;;15.83;;
11608;SDS011;5860;52.018;8.536;2023-05-07T06:41:05;16.53;;;14.77;;
11608;SDS011;5860;52.018;8.536;2023-05-07T06:43:32;20.93;;;15.80;;
11608;SDS011;5860;52.018;8.536;2023-05-07T06:45:59;18.07;;;15.53;;
11608;SDS011;5860;52.018;8.536;2023-05-07T06:48:26;18.63;;;15.13;;
11608;SDS011;5860;52.018;8.536;2023-05-07T06:50:53;16.60;;;14.03;;
11608;SDS011;5860;52.018;8.536;2023-05-07T06:53:21;17.40;;;14.67;;
11608;SDS011;5860;52.018;8.536;2023-05-07T06:55:48;15.17;;;13.60;;
11608;SDS011;5860;52.018;8.536;2023-05-07T06:58:15;18.90;;;14.83;;
11608;SDS011;5860;52.018;8.536;2023-05-07T07:00:42;16.93;;;15.03;;
11608;SDS011;5860;52.018;8.536;2023-05-07T07:03:09;19.07;;;14.47;;
11608;SDS011;5860;52.018;8.536;2023-05-07T07:05:36;17.37;;;14.10;;
11608;SDS011;5860;52.018;8.536;2023-05-07T07:08:07;15.67;;;13.40;;
11608;SDS011;5860;52.018;8.536;2023-05-07T07:10:34;15.03;;;13.17;;
11608;SDS011;5860;52.018;8.536;2023-05-07T07:13:01;15.73;;;13.03;;
11608;SDS011;5860;52.018;8.536;2023-05-07T07:15:28;15.20;;;12.63;;
11608;SDS011;5860;52.018;8.536;2023-05-07T07:17:55;16.93;;;12.10;;
11608;SDS011;5860;52.018;8.536;2023-05-07T07:20:22;15.33;;;12.57;;
11608;SDS011;5860;52.018;8.536;2023-05-07T07:22:49;13.40;;;11.97;;
11608;SDS011;5860;52.018;8.536;2023-05-07T07:25:16;13.10;;;11.67;;
11608;SDS011;5860;52.018;8.536;2023-05-07T07:27:43;14.27;;;11.73;;
11608;SDS011;5860;52.018;8.536;2023-05-07T07:30:10;14.43;;;13.03;;
11608;SDS011;5860;52.018;8.536;2023-05-07T07:32:38;14.40;;;12.50;;
11608;SDS011;5860;52.018;8.536;2023-05-07T07:35:05;13.70;;;12.13;;
11608;SDS011;5860;52.018;8.536;2023-05-07T07:37:32;14.13;;;12.73;;
11608;SDS011;5860;52.018;8.536;2023-05-07T07:39:59;13.93;;;12.53;;
11608;SDS011;5860;52.018;8.536;2023-05-07T07:42:26;15.17;;;11.80;;
11608;SDS011;5860;52.018;8.536;2023-05-07T07:44:55;13.80;;;12.10;;
11608;SDS011;5860;52.018;8.536;2023-05-07T07:47:23;13.27;;;11.77;;
11608;SDS011;5860;52.018;8.536;2023-05-07T07:49:50;13.53;;;11.77;;
11608;SDS011;5860;52.018;8.536;2023-05-07T07:52:18;12.97;;;11.57;;
11608;SDS011;5860;52.018;8.536;2023-05-07T07:54:45;13.40;;;12.00;;
11608;SDS011;5860;52.018;8.536;2023-05-07T07:57:12;14.07;;;11.63;;
11608;SDS011;5860;52.018;8.536;2023-05-07T07:59:39;12.73;;;11.07;;
11608;SDS011;5860;52.018;8.536;2023-05-07T08:02:08;12.03;;;10.73;;
11608;SDS011;5860;52.018;8.536;2023-05-07T08:04:35;12.70;;;11.37;;
11608;SDS011;5860;52.018;8.536;2023-05-07T08:07:04;12.63;;;11.33;;
11608;SDS011;5860;52.018;8.536;2023-05-07T08:09:31;11.77;;;9.47;;
11608;SDS011;5860;52.018;8.536;2023-05-07T08:11:58;11.60;;;10.40;;
11608;SDS011;5860;52.018;8.536;2023-05-07T08:14:24;11.63;;;10.53;;
11608;SDS011;5860;52.018;8.536;2023-05-07T08:16:52;10.90;;;9.80;;
11608;SDS011;5860;52.018;8.536;2023-05-07T08:19:19;10.57;;;9.53;;
11608;SDS011;5860;52.018;8.536;2023-05-07T08:21:46;13.43;;;10.40;;
11608;SDS011;5860;52.018;8.536;2023-05-07T08:24:17;10.47;;;9.03;;
11608;SDS011;5860;52.018;8.536;2023-05-07T08:26:44;10.83;;;9.40;;
11608;SDS011;5860;52.018;8.536;2023-05-07T08:29:13;11.10;;;9.27;;
11608;SDS011;5860;52.018;8.536;2023-05-07T08:31:40;10.50;;;9.40;;
11608;SDS011;5860;52.018;8.536;2023-05-07T08:34:07;11.57;;;9.23;;
11608;SDS011;5860;52.018;8.536;2023-05-07T08:36:35;10.60;;;9.50;;
11608;SDS011;5860;52.018;8.536;2023-05-07T08:39:02;10.53;;;8.87;;
11608;SDS011;5860;52.018;8.536;2023-05-07T08:41:29;10.60;;;8.83;;
11608;SDS011;5860;52.018;8.536;2023-05-07T08:43:57;9.47;;;8.57;;
11608;SDS011;5860;52.018;8.536;2023-05-07T08:46:26;10.03;;;9.00;;
11608;SDS011;5860;52.018;8.536;2023-05-07T08:48:58;10.87;;;8.50;;
11608;SDS011;5860;52.018;8.536;2023-05-07T08:51:25;9.70;;;8.70;;
11608;SDS011;5860;52.018;8.536;2023-05-07T08:53:54;9.90;;;8.83;;
11608;SDS011;5860;52.018;8.536;2023-05-07T08:56:21;8.73;;;7.90;;
11608;SDS011;5860;52.018;8.536;2023-05-07T08:58:48;11.47;;;9.27;;
11608;SDS011;5860;52.018;8.536;2023-05-07T09:01:16;9.03;;;8.10;;
11608;SDS011;5860;52.018;8.536;2023-05-07T09:03:44;10.90;;;8.63;;
11608;SDS011;5860;52.018;8.536;2023-05-07T09:06:13;9.43;;;7.73;;
11608;SDS011;5860;52.018;8.536;2023-05-07T09:08:40;10.20;;;9.10;;
11608;SDS011;5860;52.018;8.536;2023-05-07T09:11:07;9.40;;;8.40;;
11608;SDS011;5860;52.018;8.536;2023-05-07T09:13:34;9.60;;;8.40;;
11608;SDS011;5860;52.018;8.536;2023-05-07T09:16:09;9.30;;;8.20;;
11608;SDS011;5860;52.018;8.536;2023-05-07T09:18:41;9.00;;;8.10;;
11608;SDS011;5860;52.018;8.536;2023-05-07T09:21:09;8.90;;;8.03;;
11608;SDS011;5860;52.018;8.536;2023-05-07T09:23:43;9.47;;;8.30;;
11608;SDS011;5860;52.018;8.536;2023-05-07T09:26:10;9.30;;;8.30;;
11608;SDS011;5860;52.018;8.536;2023-05-07T09:28:40;9.13;;;8.00;;
11608;SDS011;5860;52.018;8.536;2023-05-07T09:31:09;9.82;;;8.80;;
11608;SDS011;5860;52.018;8.536;2023-05-07T09:33:37;10.00;;;8.03;;
11608;SDS011;5860;52.018;8.536;2023-05-07T09:36:05;8.30;;;7.43;;
11608;SDS011;5860;52.018;8.536;2023-05-07T09:38:33;10.98;;;8.10;;
11608;SDS011;5860;52.018;8.536;2023-05-07T09:41:10;9.65;;;8.65;;
11608;SDS011;5860;52.018;8.536;2023-05-07T09:43:39;8.93;;;8.00;;
11608;SDS011;5860;52.018;8.536;2023-05-07T09:48:41;10.27;;;9.15;;
11608;SDS011;5860;52.018;8.536;2023-05-07T09:51:18;9.38;;;8.40;;
11608;SDS011;5860;52.018;8.536;2023-05-07T09:53:56;9.07;;;8.15;;
11608;SDS011;5860;52.018;8.536;2023-05-07T09:56:26;9.98;;;8.95;;
11608;SDS011;5860;52.018;8.536;2023-05-07T09:58:56;8.70;;;7.82;;
11608;SDS011;5860;52.018;8.536;2023-05-07T10:01:27;9.20;;;7.97;;
11608;SDS011;5860;52.018;8.536;2023-05-07T10:03:55;9.40;;;8.38;;
11608;SDS011;5860;52.018;8.536;2023-05-07T10:06:24;9.10;;;8.20;;
11608;SDS011;5860;52.018;8.536;2023-05-07T10:08:52;8.23;;;7.43;;
11608;SDS011;5860;52.018;8.536;2023-05-07T10:11:20;9.02;;;8.13;;
11608;SDS011;5860;52.018;8.536;2023-05-07T10:13:48;8.73;;;7.65;;
11608;SDS011;5860;52.018;8.536;2023-05-07T10:16:16;9.27;;;8.10;;
11608;SDS011;5860;52.018;8.536;2023-05-07T10:18:43;9.45;;;7.43;;
11608;SDS011;5860;52.018;8.536;2023-05-07T10:21:23;9.23;;;8.02;;
11608;SDS011;5860;52.018;8.536;2023-05-07T10:23:56;8.57;;;7.63;;
11608;SDS011;5860;52.018;8.536;2023-05-07T10:26:36;7.72;;;6.80;;
11608;SDS011;5860;52.018;8.536;2023-05-07T10:29:05;8.25;;;7.15;;
11608;SDS011;5860;52.018;8.536;2023-05-07T10:31:50;8.55;;;7.75;;
11608;SDS011;5860;52.018;8.536;2023-05-07T10:34:21;7.57;;;6.80;;
11608;SDS011;5860;52.018;8.536;2023-05-07T10:36:52;7.72;;;6.93;;
11608;SDS011;5860;52.018;8.536;2023-05-07T10:39:20;8.40;;;7.05;;
11608;SDS011;5860;52.018;8.536;2023-05-07T10:41:50;7.53;;;6.82;;
11608;SDS011;5860;52.018;8.536;2023-05-07T10:44:27;7.30;;;6.60;;
11608;SDS011;5860;52.018;8.536;2023-05-07T10:47:08;7.90;;;6.70;;
11608;SDS011;5860;52.018;8.536;2023-05-07T10:52:14;7.95;;;6.95;;
11608;SDS011;5860;52.018;8.536;2023-05-07T10:54:45;9.90;;;7.32;;
11608;SDS011;5860;52.018;8.536;2023-05-07T11:03:04;7.07;;;6.38;;
11608;SDS011;5860;52.018;8.536;2023-05-07T11:05:33;8.00;;;5.97;;
11608;SDS011;5860;52.018;8.536;2023-05-07T11:08:04;7.70;;;6.90;;
11608;SDS011;5860;52.018;8.536;2023-05-07T11:10:47;7.95;;;5.90;;
11608;SDS011;5860;52.018;8.536;2023-05-07T11:13:42;6.63;;;5.97;;
11608;SDS011;5860;52.018;8.536;2023-05-07T11:16:17;7.03;;;6.32;;
11608;SDS011;5860;52.018;8.536;2023-05-07T11:18:48;6.47;;;5.88;;
11608;SDS011;5860;52.018;8.536;2023-05-07T11:23:59;6.65;;;5.20;;
11608;SDS011;5860;52.018;8.536;2023-05-07T11:26:28;6.07;;;5.38;;
11608;SDS011;5860;52.018;8.536;2023-05-07T11:29:12;5.82;;;4.65;;
11608;SDS011;5860;52.018;8.536;2023-05-07T11:31:52;7.85;;;5.20;;
11608;SDS011;5860;52.018;8.536;2023-05-07T11:34:21;5.72;;;5.18;;
11608;SDS011;5860;52.018;8.536;2023-05-07T11:36:50;6.75;;;5.40;;
11608;SDS011;5860;52.018;8.536;2023-05-07T11:39:51;6.43;;;4.95;;
11608;SDS011;5860;52.018;8.536;2023-05-07T11:42:56;6.10;;;5.20;;
11608;SDS011;5860;52.018;8.536;2023-05-07T11:45:01;5.63;;;5.10;;
11608;SDS011;5860;52.018;8.536;2023-05-07T11:47:31;5.27;;;4.77;;
11608;SDS011;5860;52.018;8.536;2023-05-07T11:50:08;5.37;;;4.70;;
11608;SDS011;5860;52.018;8.536;2023-05-07T11:52:36;5.60;;;4.97;;
11608;SDS011;5860;52.018;8.536;2023-05-07T11:55:06;5.07;;;4.50;;
11608;SDS011;5860;52.018;8.536;2023-05-07T11:57:34;7.87;;;4.27;;
11608;SDS011;5860;52.018;8.536;2023-05-07T12:00:02;5.07;;;4.33;;
11608;SDS011;5860;52.018;8.536;2023-05-07T12:02:30;4.73;;;4.00;;
11608;SDS011;5860;52.018;8.536;2023-05-07T12:04:59;5.43;;;4.30;;
11608;SDS011;5860;52.018;8.536;2023-05-07T12:07:27;6.47;;;4.37;;
11608;SDS011;5860;52.018;8.536;2023-05-07T12:09:53;4.10;;;3.70;;
11608;SDS011;5860;52.018;8.536;2023-05-07T12:12:20;5.00;;;4.40;;
11608;SDS011;5860;52.018;8.536;2023-05-07T12:14:47;4.70;;;4.30;;
11608;SDS011;5860;52.018;8.536;2023-05-07T12:17:14;5.17;;;4.50;;
11608;SDS011;5860;52.018;8.536;2023-05-07T12:19:42;5.23;;;4.73;;
11608;SDS011;5860;52.018;8.536;2023-05-07T12:22:11;5.70;;;5.20;;
11608;SDS011;5860;52.018;8.536;2023-05-07T12:24:48;5.33;;;4.83;;
11608;SDS011;5860;52.018;8.536;2023-05-07T12:27:16;5.67;;;4.90;;
11608;SDS011;5860;52.018;8.536;2023-05-07T12:29:47;6.07;;;4.93;;
11608;SDS011;5860;52.018;8.536;2023-05-07T12:32:19;5.50;;;5.00;;
11608;SDS011;5860;52.018;8.536;2023-05-07T12:34:51;5.80;;;4.90;;
11608;SDS011;5860;52.018;8.536;2023-05-07T12:37:22;5.77;;;5.03;;
11608;SDS011;5860;52.018;8.536;2023-05-07T12:40:07;6.20;;;5.03;;
11608;SDS011;5860;52.018;8.536;2023-05-07T12:42:36;4.90;;;4.07;;
11608;SDS011;5860;52.018;8.536;2023-05-07T12:45:10;4.80;;;4.40;;
11608;SDS011;5860;52.018;8.536;2023-05-07T12:47:39;4.63;;;4.23;;
11608;SDS011;5860;52.018;8.536;2023-05-07T12:50:09;4.90;;;4.40;;
11608;SDS011;5860;52.018;8.536;2023-05-07T12:52:36;5.15;;;4.45;;
11608;SDS011;5860;52.018;8.536;2023-05-07T12:55:04;5.07;;;4.57;;
11608;SDS011;5860;52.018;8.536;2023-05-07T12:57:39;5.10;;;4.60;;
11608;SDS011;5860;52.018;8.536;2023-05-07T13:00:07;5.50;;;4.53;;
11608;SDS011;5860;52.018;8.536;2023-05-07T13:02:38;4.68;;;4.28;;
11608;SDS011;5860;52.018;8.536;2023-05-07T13:05:07;5.75;;;4.90;;
11608;SDS011;5860;52.018;8.536;2023-05-07T13:07:35;4.72;;;4.22;;
11608;SDS011;5860;52.018;8.536;2023-05-07T13:10:03;5.53;;;4.47;;
11608;SDS011;5860;52.018;8.536;2023-05-07T13:12:31;4.63;;;4.20;;
11608;SDS011;5860;52.018;8.536;2023-05-07T13:14:59;4.75;;;4.28;;
11608;SDS011;5860;52.018;8.536;2023-05-07T13:17:26;4.95;;;4.45;;
11608;SDS011;5860;52.018;8.536;2023-05-07T13:19:53;4.90;;;4.40;;
11608;SDS011;5860;52.018;8.536;2023-05-07T13:22:20;4.83;;;4.27;;
11608;SDS011;5860;52.018;8.536;2023-05-07T13:24:47;5.32;;;4.10;;
11608;SDS011;5860;52.018;8.536;2023-05-07T13:27:14;6.15;;;4.22;;
11608;SDS011;5860;52.018;8.536;2023-05-07T13:29:41;4.85;;;4.43;;
11608;SDS011;5860;52.018;8.536;2023-05-07T13:32:08;5.77;;;4.50;;
11608;SDS011;5860;52.018;8.536;2023-05-07T13:34:35;4.95;;;4.43;;
11608;SDS011;5860;52.018;8.536;2023-05-07T13:37:03;5.17;;;4.20;;
11608;SDS011;5860;52.018;8.536;2023-05-07T13:39:30;5.77;;;4.83;;
11608;SDS011;5860;52.018;8.536;2023-05-07T13:41:57;4.35;;;3.95;;
11608;SDS011;5860;52.018;8.536;2023-05-07T13:44:24;4.70;;;4.20;;
11608;SDS011;5860;52.018;8.536;2023-05-07T13:46:52;5.40;;;4.90;;
11608;SDS011;5860;52.018;8.536;2023-05-07T13:49:19;5.13;;;4.50;;
11608;SDS011;5860;52.018;8.536;2023-05-07T13:51:47;5.43;;;4.70;;
11608;SDS011;5860;52.018;8.536;2023-05-07T13:54:13;6.03;;;5.03;;
11608;SDS011;5860;52.018;8.536;2023-05-07T13:56:40;5.40;;;4.90;;
11608;SDS011;5860;52.018;8.536;2023-05-07T13:59:07;6.00;;;5.07;;
11608;SDS011;5860;52.018;8.536;2023-05-07T14:01:34;5.77;;;5.23;;
11608;SDS011;5860;52.018;8.536;2023-05-07T14:04:01;5.30;;;4.73;;
11608;SDS011;5860;52.018;8.536;2023-05-07T14:06:28;5.50;;;5.00;;
11608;SDS011;5860;52.018;8.536;2023-05-07T14:08:56;6.40;;;5.43;;
11608;SDS011;5860;52.018;8.536;2023-05-07T14:11:24;5.87;;;5.23;;
11608;SDS011;5860;52.018;8.536;2023-05-07T14:13:51;5.67;;;5.13;;
11608;SDS011;5860;52.018;8.536;2023-05-07T14:16:18;6.37;;;5.77;;
11608;SDS011;5860;52.018;8.536;2023-05-07T14:18:44;8.47;;;6.10;;
11608;SDS011;5860;52.018;8.536;2023-05-07T14:21:11;9.57;;;5.70;;
11608;SDS011;5860;52.018;8.536;2023-05-07T14:23:39;6.37;;;5.70;;
11608;SDS011;5860;52.018;8.536;2023-05-07T14:26:06;6.23;;;5.17;;
11608;SDS011;5860;52.018;8.536;2023-05-07T14:28:33;7.80;;;5.47;;
11608;SDS011;5860;52.018;8.536;2023-05-07T14:31:00;7.73;;;6.20;;
11608;SDS011;5860;52.018;8.536;2023-05-07T14:33:27;7.10;;;6.10;;
11608;SDS011;5860;52.018;8.536;2023-05-07T14:35:54;6.77;;;6.07;;
11608;SDS011;5860;52.018;8.536;2023-05-07T14:38:21;7.27;;;6.33;;
11608;SDS011;5860;52.018;8.536;2023-05-07T14:40:48;7.30;;;6.03;;
11608;SDS011;5860;52.018;8.536;2023-05-07T14:43:15;7.20;;;6.50;;
11608;SDS011;5860;52.018;8.536;2023-05-07T14:45:42;7.17;;;6.43;;
11608;SDS011;5860;52.018;8.536;2023-05-07T14:48:09;8.23;;;7.20;;
11608;SDS011;5860;52.018;8.536;2023-05-07T14:50:41;7.47;;;6.57;;
11608;SDS011;5860;52.018;8.536;2023-05-07T14:53:09;9.90;;;7.27;;
11608;SDS011;5860;52.018;8.536;2023-05-07T14:55:35;7.50;;;6.80;;
11608;SDS011;5860;52.018;8.536;2023-05-07T14:58:03;7.47;;;6.77;;
11608;SDS011;5860;52.018;8.536;2023-05-07T15:00:30;8.93;;;7.37;;
11608;SDS011;5860;52.018;8.536;2023-05-07T15:02:59;8.73;;;7.00;;
11608;SDS011;5860;52.018;8.536;2023-05-07T15:05:33;7.53;;;6.83;;
11608;SDS011;5860;52.018;8.536;2023-05-07T15:08:00;7.80;;;7.00;;
11608;SDS011;5860;52.018;8.536;2023-05-07T15:10:27;7.50;;;6.77;;